Terminal Aerodrome Forecast
Issued by NWS

Home | Current Version | Previous Version | Text Only | Print | Product List | Glossary On
Versions: 1 2 3 4 5 6 7 8 9 10 11 12 13 14 15 16 17 18 19 20
000
FTUS46 KSGX 032321
TAFSNA
TAF
KSNA 032321Z 0400/0424 VRB05KT P6SM SCT018 BKN200
     FM040800 VRB04KT P6SM OVC014
     FM041600 VRB04KT P6SM BKN020
     FM042000 22011KT P6SM BKN025=

USA.gov is the U.S. government's official web portal to all federal, state and local government web resources and services.